Glenwood Springs, CO

4:48 PM MDT on September 26, 2016 (GMT -0600)
Sunlight Mountain | | Change Station

Elev 10604 ft 39.43 °N, 107.38 °W | Updated 13 minutes ago

Clear
Clear
54 °F
Feels Like 54 °F
N
5
Wind Variable Wind from West

Today
High -- | Low -- °F
--% Chance of Precip.
Yesterday
High -- | Low -- °F
Precip. -- in
Pressure 30.66 in
Visibility 10.0 miles
Clouds Clear
Dew Point 30 °F
Humidity 41%
Rainfall 0.00 in
Snow Depth Not available.
7:01 AM 6:59 PM
Waning Crescent, 16% visible
METAR K5SM 262235Z AUTO 28004KT 10SM CLR 12/M01 A3066 RMK AO2 TSNO
Pressure 30.66 in
Visibility 10.0 miles
Clouds Clear
Dew Point 30 °F
Humidity 41%
Rainfall 0.00 in
Snow Depth Not available.
7:01 AM 6:59 PM
Waning Crescent, 16% visible
METAR K5SM 262235Z AUTO 28004KT 10SM CLR 12/M01 A3066 RMK AO2 TSNO

10-Day Weather Forecast

Almanac

Astronomy

Sep. 26, 2016 Rise Set
Actual Time
Civil Twilight
Nautical Twilight
Astronomical Twilight
Moon
Length of Visible Light
Length of Day
Tomorrow will be .
, % of the Moon is Illuminated

Today's Extremes

State Highs State Lows

Community

WunderPhotos

Upload Photos

1,941,981 photos uploaded!

WunderBlog® & News

Nearby

Air Quality

  Air Quality AQ Index Pollutant
Not available.

Snow Depth

Station Depth Elevation

Earthquake Activity

City Distance Mag. Time & Date
Minimum magnitude displayed is 2.5.

Coastal Water Temperatures

Place Temperature

Stations

Nearby Weather Stations

Station Location Temp. Windchill Dew Point Humidity Wind Precip. Elev Updated Type
                   

Watches & Warnings

There are currently no watches in effect.